Terminal Aerodrome Forecast
Issued by NWS

Home | Current Version | Previous Version | Text Only | Print | Product List | Glossary On
Versions: 1 2 3 4 5 6 7 8 9 10 11 12 13 14 15 16 17 18 19 20 21 22 23 24 25 26 27 28
046
FTUS44 KFWD 072335
TAFFTW
TAF
KFTW 072335Z 0800/0824 33007KT P6SM FEW300
     FM080500 34018KT P6SM FEW300
     FM081700 34022G32KT P6SM FEW300=

USA.gov is the U.S. government's official web portal to all federal, state and local government web resources and services.